60PA weather

Pottstown Hospital Heliport
Pottstown, Pennsylvania, United States

Public forecast

Using degrees Fahrenheit for public forecast. Weather courtesy of forecast.io.

Closest aviation weather report (METAR) to Pottstown Hospital Heliport

Closest report is Heritage Field, 2.5 nm (4.6 km) E. Retrieved 2020/08/07 23:13 UTC (35 minutes ago):

KPTW 072313Z AUTO 08003KT 5SM -RA BR FEW050 SCT075 OVC095 19/18 A3013 RMK AO2 LTG DSNT E-S P0005 T01890178

Closest aviation forecast (TAF) to Pottstown Hospital Heliport

Closest forecast is Reading Regional Carl A Spaatz Field, 18.1 nm (33.6 km) WNW. Retrieved 2020/08/07 18:42 UTC (5 hours ago):

TAF KRDG 071739Z 0718/0818 07006KT P6SM VCTS BKN015CB FM071900 07005KT P6SM VCTS SCT025CB BKN040 TEMPO 0720/0723 1SM TSRA OVC025CB FM080200 VRB02KT 5SM BR FEW003 BKN030 FM080700 00000KT 2SM BR SCT003 BKN008 FM081400 VRB02KT P6SM BKN020